sensor_id;sensor_type;location;lat;lon;timestamp;P1;durP1;ratioP1;P2;durP2;ratioP2
68250;SDS011;55066;51.560;4.642;2024-02-21T00:00:48;9.40;;;2.90;;
68250;SDS011;55066;51.560;4.642;2024-02-21T00:03:14;8.33;;;2.97;;
68250;SDS011;55066;51.560;4.642;2024-02-21T00:05:39;8.75;;;2.95;;
68250;SDS011;55066;51.560;4.642;2024-02-21T00:08:05;8.20;;;2.33;;
68250;SDS011;55066;51.560;4.642;2024-02-21T00:10:30;11.95;;;2.97;;
68250;SDS011;55066;51.560;4.642;2024-02-21T00:12:58;12.95;;;3.20;;
68250;SDS011;55066;51.560;4.642;2024-02-21T00:15:27;9.30;;;2.55;;
68250;SDS011;55066;51.560;4.642;2024-02-21T00:17:53;6.95;;;2.55;;
68250;SDS011;55066;51.560;4.642;2024-02-21T00:20:18;5.53;;;2.00;;
68250;SDS011;55066;51.560;4.642;2024-02-21T00:22:45;6.72;;;2.03;;
68250;SDS011;55066;51.560;4.642;2024-02-21T00:25:10;9.98;;;2.65;;
68250;SDS011;55066;51.560;4.642;2024-02-21T00:27:36;10.68;;;3.10;;
68250;SDS011;55066;51.560;4.642;2024-02-21T00:30:02;8.63;;;2.47;;
68250;SDS011;55066;51.560;4.642;2024-02-21T00:32:28;10.52;;;2.58;;
68250;SDS011;55066;51.560;4.642;2024-02-21T00:34:53;16.07;;;2.90;;
68250;SDS011;55066;51.560;4.642;2024-02-21T00:37:19;6.65;;;1.80;;
68250;SDS011;55066;51.560;4.642;2024-02-21T00:39:44;8.73;;;2.78;;
68250;SDS011;55066;51.560;4.642;2024-02-21T00:42:09;5.30;;;1.73;;
68250;SDS011;55066;51.560;4.642;2024-02-21T00:44:35;7.87;;;2.03;;
68250;SDS011;55066;51.560;4.642;2024-02-21T00:47:00;6.53;;;2.20;;
68250;SDS011;55066;51.560;4.642;2024-02-21T00:49:26;6.40;;;1.88;;
68250;SDS011;55066;51.560;4.642;2024-02-21T00:51:51;8.50;;;2.37;;
68250;SDS011;55066;51.560;4.642;2024-02-21T00:54:17;6.13;;;2.30;;
68250;SDS011;55066;51.560;4.642;2024-02-21T00:56:42;5.27;;;1.80;;
68250;SDS011;55066;51.560;4.642;2024-02-21T00:59:08;7.43;;;2.00;;
68250;SDS011;55066;51.560;4.642;2024-02-21T01:01:33;9.83;;;2.20;;
68250;SDS011;55066;51.560;4.642;2024-02-21T01:03:59;7.03;;;2.23;;
68250;SDS011;55066;51.560;4.642;2024-02-21T01:06:25;11.27;;;2.78;;
68250;SDS011;55066;51.560;4.642;2024-02-21T01:08:51;8.77;;;2.78;;
68250;SDS011;55066;51.560;4.642;2024-02-21T01:11:16;9.17;;;3.53;;
68250;SDS011;55066;51.560;4.642;2024-02-21T01:13:41;9.90;;;3.20;;
68250;SDS011;55066;51.560;4.642;2024-02-21T01:16:08;7.80;;;3.20;;
68250;SDS011;55066;51.560;4.642;2024-02-21T01:18:33;10.73;;;2.83;;
68250;SDS011;55066;51.560;4.642;2024-02-21T01:20:59;8.68;;;3.22;;
68250;SDS011;55066;51.560;4.642;2024-02-21T01:23:25;8.13;;;3.53;;
68250;SDS011;55066;51.560;4.642;2024-02-21T01:25:51;11.18;;;3.25;;
68250;SDS011;55066;51.560;4.642;2024-02-21T01:28:16;10.67;;;2.70;;
68250;SDS011;55066;51.560;4.642;2024-02-21T01:30:43;10.70;;;2.92;;
68250;SDS011;55066;51.560;4.642;2024-02-21T01:33:08;7.50;;;2.93;;
68250;SDS011;55066;51.560;4.642;2024-02-21T01:35:35;10.43;;;2.80;;
68250;SDS011;55066;51.560;4.642;2024-02-21T01:38:01;9.93;;;2.93;;
68250;SDS011;55066;51.560;4.642;2024-02-21T01:40:26;8.70;;;2.28;;
68250;SDS011;55066;51.560;4.642;2024-02-21T01:42:53;13.47;;;2.80;;
68250;SDS011;55066;51.560;4.642;2024-02-21T01:45:20;11.73;;;2.95;;
68250;SDS011;55066;51.560;4.642;2024-02-21T01:47:45;8.23;;;2.80;;
68250;SDS011;55066;51.560;4.642;2024-02-21T01:50:13;8.90;;;2.80;;
68250;SDS011;55066;51.560;4.642;2024-02-21T01:52:40;10.85;;;2.75;;
68250;SDS011;55066;51.560;4.642;2024-02-21T01:55:07;9.43;;;2.77;;
68250;SDS011;55066;51.560;4.642;2024-02-21T01:57:34;13.13;;;3.17;;
68250;SDS011;55066;51.560;4.642;2024-02-21T01:59:59;8.30;;;2.55;;
68250;SDS011;55066;51.560;4.642;2024-02-21T02:02:25;7.67;;;2.87;;
68250;SDS011;55066;51.560;4.642;2024-02-21T02:04:51;9.70;;;3.20;;
68250;SDS011;55066;51.560;4.642;2024-02-21T02:07:17;7.50;;;2.70;;
68250;SDS011;55066;51.560;4.642;2024-02-21T02:09:43;7.67;;;3.00;;
68250;SDS011;55066;51.560;4.642;2024-02-21T02:12:08;7.10;;;2.70;;
68250;SDS011;55066;51.560;4.642;2024-02-21T02:14:34;9.77;;;3.30;;
68250;SDS011;55066;51.560;4.642;2024-02-21T02:17:01;13.68;;;3.15;;
68250;SDS011;55066;51.560;4.642;2024-02-21T02:19:27;9.13;;;3.00;;
68250;SDS011;55066;51.560;4.642;2024-02-21T02:21:53;10.70;;;3.10;;
68250;SDS011;55066;51.560;4.642;2024-02-21T02:24:26;8.35;;;2.45;;
68250;SDS011;55066;51.560;4.642;2024-02-21T02:26:52;14.53;;;2.80;;
68250;SDS011;55066;51.560;4.642;2024-02-21T02:29:17;8.47;;;2.80;;
68250;SDS011;55066;51.560;4.642;2024-02-21T02:31:45;8.75;;;2.70;;
68250;SDS011;55066;51.560;4.642;2024-02-21T02:34:10;9.50;;;2.95;;
68250;SDS011;55066;51.560;4.642;2024-02-21T02:36:36;8.90;;;3.07;;
68250;SDS011;55066;51.560;4.642;2024-02-21T02:39:01;11.43;;;3.17;;
68250;SDS011;55066;51.560;4.642;2024-02-21T02:41:27;11.20;;;3.03;;
68250;SDS011;55066;51.560;4.642;2024-02-21T02:43:52;9.93;;;2.60;;
68250;SDS011;55066;51.560;4.642;2024-02-21T02:46:17;7.33;;;2.77;;
68250;SDS011;55066;51.560;4.642;2024-02-21T02:48:44;9.20;;;3.30;;
68250;SDS011;55066;51.560;4.642;2024-02-21T02:51:10;9.63;;;2.70;;
68250;SDS011;55066;51.560;4.642;2024-02-21T02:53:35;7.63;;;2.95;;
68250;SDS011;55066;51.560;4.642;2024-02-21T02:56:01;7.33;;;2.93;;
68250;SDS011;55066;51.560;4.642;2024-02-21T02:58:28;13.13;;;3.30;;
68250;SDS011;55066;51.560;4.642;2024-02-21T03:00:53;8.65;;;2.85;;
68250;SDS011;55066;51.560;4.642;2024-02-21T03:03:19;9.20;;;3.40;;
68250;SDS011;55066;51.560;4.642;2024-02-21T03:05:45;8.77;;;3.47;;
68250;SDS011;55066;51.560;4.642;2024-02-21T03:08:11;9.98;;;2.92;;
68250;SDS011;55066;51.560;4.642;2024-02-21T03:10:36;13.13;;;3.57;;
68250;SDS011;55066;51.560;4.642;2024-02-21T03:13:02;7.97;;;3.10;;
68250;SDS011;55066;51.560;4.642;2024-02-21T03:15:28;12.40;;;4.00;;
68250;SDS011;55066;51.560;4.642;2024-02-21T03:17:54;10.18;;;3.45;;
68250;SDS011;55066;51.560;4.642;2024-02-21T03:20:19;8.03;;;3.60;;
68250;SDS011;55066;51.560;4.642;2024-02-21T03:22:45;11.37;;;3.73;;
68250;SDS011;55066;51.560;4.642;2024-02-21T03:25:10;9.80;;;3.45;;
68250;SDS011;55066;51.560;4.642;2024-02-21T03:27:37;11.95;;;4.18;;
68250;SDS011;55066;51.560;4.642;2024-02-21T03:30:03;9.85;;;3.92;;
68250;SDS011;55066;51.560;4.642;2024-02-21T03:32:29;12.32;;;4.07;;
68250;SDS011;55066;51.560;4.642;2024-02-21T03:34:55;17.93;;;4.30;;
68250;SDS011;55066;51.560;4.642;2024-02-21T03:37:20;14.93;;;4.32;;
68250;SDS011;55066;51.560;4.642;2024-02-21T03:39:46;12.30;;;4.13;;
68250;SDS011;55066;51.560;4.642;2024-02-21T03:42:12;9.60;;;3.83;;
68250;SDS011;55066;51.560;4.642;2024-02-21T03:44:38;13.40;;;4.00;;
68250;SDS011;55066;51.560;4.642;2024-02-21T03:47:04;13.70;;;4.28;;
68250;SDS011;55066;51.560;4.642;2024-02-21T03:49:29;11.93;;;3.67;;
68250;SDS011;55066;51.560;4.642;2024-02-21T03:51:55;14.90;;;4.30;;
68250;SDS011;55066;51.560;4.642;2024-02-21T03:54:21;16.07;;;4.50;;
68250;SDS011;55066;51.560;4.642;2024-02-21T03:56:48;12.82;;;4.07;;
68250;SDS011;55066;51.560;4.642;2024-02-21T03:59:14;13.05;;;4.18;;
68250;SDS011;55066;51.560;4.642;2024-02-21T04:01:39;14.07;;;3.33;;
68250;SDS011;55066;51.560;4.642;2024-02-21T04:04:07;14.48;;;4.13;;
68250;SDS011;55066;51.560;4.642;2024-02-21T04:06:33;15.20;;;3.97;;
68250;SDS011;55066;51.560;4.642;2024-02-21T04:08:58;18.05;;;4.18;;
68250;SDS011;55066;51.560;4.642;2024-02-21T04:11:23;12.60;;;4.37;;
68250;SDS011;55066;51.560;4.642;2024-02-21T04:13:49;12.60;;;4.17;;
68250;SDS011;55066;51.560;4.642;2024-02-21T04:16:16;13.93;;;4.65;;
68250;SDS011;55066;51.560;4.642;2024-02-21T04:18:42;17.02;;;4.78;;
68250;SDS011;55066;51.560;4.642;2024-02-21T04:21:09;14.38;;;4.70;;
68250;SDS011;55066;51.560;4.642;2024-02-21T04:23:35;11.80;;;4.20;;
68250;SDS011;55066;51.560;4.642;2024-02-21T04:26:00;15.20;;;4.57;;
68250;SDS011;55066;51.560;4.642;2024-02-21T04:28:26;18.40;;;4.80;;
68250;SDS011;55066;51.560;4.642;2024-02-21T04:30:51;15.23;;;5.23;;
68250;SDS011;55066;51.560;4.642;2024-02-21T04:33:17;16.33;;;5.13;;
68250;SDS011;55066;51.560;4.642;2024-02-21T04:35:43;16.00;;;5.15;;
68250;SDS011;55066;51.560;4.642;2024-02-21T04:38:08;14.95;;;4.88;;
68250;SDS011;55066;51.560;4.642;2024-02-21T04:40:34;15.63;;;4.70;;
68250;SDS011;55066;51.560;4.642;2024-02-21T04:42:59;11.97;;;4.67;;
68250;SDS011;55066;51.560;4.642;2024-02-21T04:45:25;17.50;;;5.20;;
68250;SDS011;55066;51.560;4.642;2024-02-21T04:47:50;17.23;;;5.60;;
68250;SDS011;55066;51.560;4.642;2024-02-21T04:50:16;19.17;;;4.87;;
68250;SDS011;55066;51.560;4.642;2024-02-21T04:52:41;19.30;;;5.37;;
68250;SDS011;55066;51.560;4.642;2024-02-21T04:55:07;15.02;;;4.95;;
68250;SDS011;55066;51.560;4.642;2024-02-21T04:57:33;15.27;;;5.07;;
68250;SDS011;55066;51.560;4.642;2024-02-21T04:59:58;20.17;;;5.65;;
68250;SDS011;55066;51.560;4.642;2024-02-21T05:02:24;14.47;;;5.40;;
68250;SDS011;55066;51.560;4.642;2024-02-21T05:04:50;14.93;;;5.10;;
68250;SDS011;55066;51.560;4.642;2024-02-21T05:07:16;14.18;;;5.10;;
68250;SDS011;55066;51.560;4.642;2024-02-21T05:09:42;16.40;;;5.30;;
68250;SDS011;55066;51.560;4.642;2024-02-21T05:12:07;17.45;;;4.82;;
68250;SDS011;55066;51.560;4.642;2024-02-21T05:14:33;19.27;;;5.57;;
68250;SDS011;55066;51.560;4.642;2024-02-21T05:16:59;16.63;;;4.75;;
68250;SDS011;55066;51.560;4.642;2024-02-21T05:19:24;17.25;;;5.50;;
68250;SDS011;55066;51.560;4.642;2024-02-21T05:21:50;15.40;;;4.93;;
68250;SDS011;55066;51.560;4.642;2024-02-21T05:24:15;19.07;;;5.27;;
68250;SDS011;55066;51.560;4.642;2024-02-21T05:26:41;14.17;;;4.93;;
68250;SDS011;55066;51.560;4.642;2024-02-21T05:29:07;17.05;;;5.28;;
68250;SDS011;55066;51.560;4.642;2024-02-21T05:31:42;15.77;;;5.20;;
68250;SDS011;55066;51.560;4.642;2024-02-21T05:34:21;21.38;;;4.90;;
68250;SDS011;55066;51.560;4.642;2024-02-21T05:36:47;15.25;;;5.05;;
68250;SDS011;55066;51.560;4.642;2024-02-21T05:39:13;13.63;;;4.85;;
68250;SDS011;55066;51.560;4.642;2024-02-21T05:41:39;14.97;;;4.40;;
68250;SDS011;55066;51.560;4.642;2024-02-21T05:44:05;16.85;;;5.10;;
68250;SDS011;55066;51.560;4.642;2024-02-21T05:46:30;17.10;;;4.83;;
68250;SDS011;55066;51.560;4.642;2024-02-21T05:48:55;14.03;;;5.10;;
68250;SDS011;55066;51.560;4.642;2024-02-21T05:51:21;15.40;;;5.20;;
68250;SDS011;55066;51.560;4.642;2024-02-21T05:53:46;15.70;;;5.30;;
68250;SDS011;55066;51.560;4.642;2024-02-21T05:56:12;20.48;;;5.43;;
68250;SDS011;55066;51.560;4.642;2024-02-21T05:58:39;21.00;;;6.10;;
68250;SDS011;55066;51.560;4.642;2024-02-21T06:01:05;19.00;;;5.47;;
68250;SDS011;55066;51.560;4.642;2024-02-21T06:03:32;22.17;;;5.63;;
68250;SDS011;55066;51.560;4.642;2024-02-21T06:05:58;22.10;;;5.60;;
68250;SDS011;55066;51.560;4.642;2024-02-21T06:08:25;16.05;;;5.72;;
68250;SDS011;55066;51.560;4.642;2024-02-21T06:10:50;17.17;;;6.00;;
68250;SDS011;55066;51.560;4.642;2024-02-21T06:13:19;18.35;;;5.57;;
68250;SDS011;55066;51.560;4.642;2024-02-21T06:15:46;19.58;;;5.82;;
68250;SDS011;55066;51.560;4.642;2024-02-21T06:18:12;16.95;;;5.68;;
68250;SDS011;55066;51.560;4.642;2024-02-21T06:20:38;19.40;;;5.97;;
68250;SDS011;55066;51.560;4.642;2024-02-21T06:23:05;13.73;;;5.00;;
68250;SDS011;55066;51.560;4.642;2024-02-21T06:25:31;18.45;;;5.95;;
68250;SDS011;55066;51.560;4.642;2024-02-21T06:27:57;16.00;;;5.10;;
68250;SDS011;55066;51.560;4.642;2024-02-21T06:30:22;17.40;;;5.57;;
68250;SDS011;55066;51.560;4.642;2024-02-21T06:32:48;13.40;;;5.45;;
68250;SDS011;55066;51.560;4.642;2024-02-21T06:35:14;16.73;;;5.57;;
68250;SDS011;55066;51.560;4.642;2024-02-21T06:37:39;16.05;;;5.35;;
68250;SDS011;55066;51.560;4.642;2024-02-21T06:40:05;18.53;;;5.60;;
68250;SDS011;55066;51.560;4.642;2024-02-21T06:42:31;20.52;;;5.75;;
68250;SDS011;55066;51.560;4.642;2024-02-21T06:44:56;16.20;;;5.97;;
68250;SDS011;55066;51.560;4.642;2024-02-21T06:47:22;20.33;;;5.50;;
68250;SDS011;55066;51.560;4.642;2024-02-21T06:49:50;20.52;;;5.65;;
68250;SDS011;55066;51.560;4.642;2024-02-21T06:52:19;19.30;;;5.67;;
68250;SDS011;55066;51.560;4.642;2024-02-21T06:54:48;18.13;;;5.63;;
68250;SDS011;55066;51.560;4.642;2024-02-21T06:57:13;16.85;;;5.55;;
68250;SDS011;55066;51.560;4.642;2024-02-21T06:59:40;18.45;;;5.90;;
68250;SDS011;55066;51.560;4.642;2024-02-21T07:02:06;19.05;;;6.15;;
68250;SDS011;55066;51.560;4.642;2024-02-21T07:04:32;21.60;;;6.23;;
68250;SDS011;55066;51.560;4.642;2024-02-21T07:06:58;15.60;;;5.68;;
68250;SDS011;55066;51.560;4.642;2024-02-21T07:09:23;15.83;;;6.07;;
68250;SDS011;55066;51.560;4.642;2024-02-21T07:11:49;19.13;;;6.30;;
68250;SDS011;55066;51.560;4.642;2024-02-21T07:14:14;17.83;;;6.60;;
68250;SDS011;55066;51.560;4.642;2024-02-21T07:16:40;18.30;;;6.55;;
68250;SDS011;55066;51.560;4.642;2024-02-21T07:19:06;18.17;;;6.47;;
68250;SDS011;55066;51.560;4.642;2024-02-21T07:21:31;16.48;;;5.82;;
68250;SDS011;55066;51.560;4.642;2024-02-21T07:23:57;16.03;;;5.77;;
68250;SDS011;55066;51.560;4.642;2024-02-21T07:26:22;17.25;;;6.35;;
68250;SDS011;55066;51.560;4.642;2024-02-21T07:28:48;20.23;;;6.17;;
68250;SDS011;55066;51.560;4.642;2024-02-21T07:31:15;17.02;;;5.70;;
68250;SDS011;55066;51.560;4.642;2024-02-21T07:33:40;15.73;;;5.17;;
68250;SDS011;55066;51.560;4.642;2024-02-21T07:36:10;19.63;;;5.67;;
68250;SDS011;55066;51.560;4.642;2024-02-21T07:38:36;18.05;;;5.80;;
68250;SDS011;55066;51.560;4.642;2024-02-21T07:41:02;17.50;;;6.03;;
68250;SDS011;55066;51.560;4.642;2024-02-21T07:43:29;14.35;;;5.40;;
68250;SDS011;55066;51.560;4.642;2024-02-21T07:45:55;20.70;;;6.65;;
68250;SDS011;55066;51.560;4.642;2024-02-21T07:48:21;19.25;;;5.70;;
68250;SDS011;55066;51.560;4.642;2024-02-21T07:50:50;19.75;;;6.03;;
68250;SDS011;55066;51.560;4.642;2024-02-21T07:53:16;23.70;;;6.45;;
68250;SDS011;55066;51.560;4.642;2024-02-21T07:55:41;21.00;;;6.70;;
68250;SDS011;55066;51.560;4.642;2024-02-21T07:58:07;22.17;;;6.33;;
68250;SDS011;55066;51.560;4.642;2024-02-21T08:00:32;22.17;;;7.00;;
68250;SDS011;55066;51.560;4.642;2024-02-21T08:02:58;18.13;;;6.15;;
68250;SDS011;55066;51.560;4.642;2024-02-21T08:05:23;15.50;;;5.43;;
68250;SDS011;55066;51.560;4.642;2024-02-21T08:07:49;18.87;;;6.37;;
68250;SDS011;55066;51.560;4.642;2024-02-21T08:10:15;20.98;;;6.40;;
68250;SDS011;55066;51.560;4.642;2024-02-21T08:12:41;18.73;;;6.47;;
68250;SDS011;55066;51.560;4.642;2024-02-21T08:15:07;19.00;;;6.00;;
68250;SDS011;55066;51.560;4.642;2024-02-21T08:17:35;17.65;;;5.53;;
68250;SDS011;55066;51.560;4.642;2024-02-21T08:20:01;18.33;;;5.47;;
68250;SDS011;55066;51.560;4.642;2024-02-21T08:22:28;18.02;;;6.05;;
68250;SDS011;55066;51.560;4.642;2024-02-21T08:24:53;12.93;;;5.43;;
68250;SDS011;55066;51.560;4.642;2024-02-21T08:27:19;21.73;;;5.60;;
68250;SDS011;55066;51.560;4.642;2024-02-21T08:29:44;18.42;;;5.47;;
68250;SDS011;55066;51.560;4.642;2024-02-21T08:32:10;14.82;;;4.80;;
68250;SDS011;55066;51.560;4.642;2024-02-21T08:34:35;16.03;;;5.90;;
68250;SDS011;55066;51.560;4.642;2024-02-21T08:37:01;20.23;;;5.33;;
68250;SDS011;55066;51.560;4.642;2024-02-21T08:39:26;17.40;;;5.10;;
68250;SDS011;55066;51.560;4.642;2024-02-21T08:41:53;15.50;;;5.78;;
68250;SDS011;55066;51.560;4.642;2024-02-21T08:44:22;17.23;;;5.50;;
68250;SDS011;55066;51.560;4.642;2024-02-21T08:46:47;14.05;;;5.00;;
68250;SDS011;55066;51.560;4.642;2024-02-21T08:49:13;13.37;;;5.10;;
68250;SDS011;55066;51.560;4.642;2024-02-21T08:51:38;14.25;;;5.10;;
68250;SDS011;55066;51.560;4.642;2024-02-21T08:54:04;12.73;;;4.23;;
68250;SDS011;55066;51.560;4.642;2024-02-21T08:56:30;13.33;;;4.83;;
68250;SDS011;55066;51.560;4.642;2024-02-21T08:58:56;14.32;;;5.70;;
68250;SDS011;55066;51.560;4.642;2024-02-21T09:01:22;13.35;;;4.40;;
68250;SDS011;55066;51.560;4.642;2024-02-21T09:03:48;15.00;;;4.47;;
68250;SDS011;55066;51.560;4.642;2024-02-21T09:06:17;12.05;;;4.43;;
68250;SDS011;55066;51.560;4.642;2024-02-21T09:08:43;10.67;;;4.73;;
68250;SDS011;55066;51.560;4.642;2024-02-21T09:11:08;11.90;;;5.35;;
68250;SDS011;55066;51.560;4.642;2024-02-21T09:13:34;13.43;;;4.63;;
68250;SDS011;55066;51.560;4.642;2024-02-21T09:15:59;11.90;;;4.87;;
68250;SDS011;55066;51.560;4.642;2024-02-21T09:18:25;12.37;;;4.37;;
68250;SDS011;55066;51.560;4.642;2024-02-21T09:20:50;11.93;;;4.60;;
68250;SDS011;55066;51.560;4.642;2024-02-21T09:23:16;10.90;;;4.47;;
68250;SDS011;55066;51.560;4.642;2024-02-21T09:25:41;10.33;;;4.03;;
68250;SDS011;55066;51.560;4.642;2024-02-21T09:28:08;12.07;;;4.65;;
68250;SDS011;55066;51.560;4.642;2024-02-21T09:30:34;13.52;;;5.40;;
68250;SDS011;55066;51.560;4.642;2024-02-21T09:33:00;11.53;;;4.93;;
68250;SDS011;55066;51.560;4.642;2024-02-21T09:35:26;11.70;;;4.72;;
68250;SDS011;55066;51.560;4.642;2024-02-21T09:37:54;10.60;;;4.47;;
68250;SDS011;55066;51.560;4.642;2024-02-21T09:40:20;10.93;;;4.75;;
68250;SDS011;55066;51.560;4.642;2024-02-21T09:42:46;10.70;;;4.13;;
68250;SDS011;55066;51.560;4.642;2024-02-21T09:45:30;10.23;;;4.18;;
68250;SDS011;55066;51.560;4.642;2024-02-21T09:50:51;11.45;;;4.25;;
68250;SDS011;55066;51.560;4.642;2024-02-21T09:53:18;11.85;;;4.70;;
68250;SDS011;55066;51.560;4.642;2024-02-21T09:55:44;10.47;;;4.37;;
68250;SDS011;55066;51.560;4.642;2024-02-21T09:58:11;12.23;;;5.05;;
68250;SDS011;55066;51.560;4.642;2024-02-21T10:00:37;14.45;;;5.70;;
68250;SDS011;55066;51.560;4.642;2024-02-21T10:03:02;10.70;;;4.70;;
68250;SDS011;55066;51.560;4.642;2024-02-21T10:05:33;12.57;;;4.60;;
68250;SDS011;55066;51.560;4.642;2024-02-21T10:08:02;12.98;;;5.68;;
68250;SDS011;55066;51.560;4.642;2024-02-21T10:10:29;14.97;;;5.43;;
68250;SDS011;55066;51.560;4.642;2024-02-21T10:12:55;18.88;;;5.28;;
68250;SDS011;55066;51.560;4.642;2024-02-21T10:15:21;17.50;;;5.65;;
68250;SDS011;55066;51.560;4.642;2024-02-21T10:17:49;13.35;;;5.20;;
68250;SDS011;55066;51.560;4.642;2024-02-21T10:20:22;13.80;;;5.40;;
68250;SDS011;55066;51.560;4.642;2024-02-21T10:22:48;16.50;;;5.30;;
68250;SDS011;55066;51.560;4.642;2024-02-21T10:25:14;12.85;;;5.22;;
68250;SDS011;55066;51.560;4.642;2024-02-21T10:27:39;14.37;;;5.17;;
68250;SDS011;55066;51.560;4.642;2024-02-21T10:30:07;14.73;;;4.80;;
68250;SDS011;55066;51.560;4.642;2024-02-21T10:32:48;12.20;;;4.57;;
68250;SDS011;55066;51.560;4.642;2024-02-21T10:35:33;12.07;;;4.43;;
68250;SDS011;55066;51.560;4.642;2024-02-21T10:37:59;11.35;;;4.60;;
68250;SDS011;55066;51.560;4.642;2024-02-21T10:40:25;10.27;;;3.88;;
68250;SDS011;55066;51.560;4.642;2024-02-21T10:43:00;10.75;;;4.35;;
68250;SDS011;55066;51.560;4.642;2024-02-21T10:45:28;11.65;;;4.28;;
68250;SDS011;55066;51.560;4.642;2024-02-21T10:48:22;13.60;;;4.18;;
68250;SDS011;55066;51.560;4.642;2024-02-21T10:50:57;14.73;;;4.40;;
68250;SDS011;55066;51.560;4.642;2024-02-21T10:58:40;10.25;;;4.03;;
68250;SDS011;55066;51.560;4.642;2024-02-21T11:01:07;9.82;;;3.80;;
68250;SDS011;55066;51.560;4.642;2024-02-21T11:03:33;11.95;;;3.90;;
68250;SDS011;55066;51.560;4.642;2024-02-21T11:05:58;9.40;;;4.17;;
68250;SDS011;55066;51.560;4.642;2024-02-21T11:08:25;7.53;;;3.75;;
68250;SDS011;55066;51.560;4.642;2024-02-21T11:10:56;8.60;;;3.65;;
68250;SDS011;55066;51.560;4.642;2024-02-21T11:13:31;11.52;;;3.80;;
68250;SDS011;55066;51.560;4.642;2024-02-21T11:16:07;7.40;;;3.40;;
68250;SDS011;55066;51.560;4.642;2024-02-21T11:18:35;11.48;;;3.78;;
68250;SDS011;55066;51.560;4.642;2024-02-21T11:21:03;8.40;;;3.15;;
68250;SDS011;55066;51.560;4.642;2024-02-21T11:23:32;10.45;;;3.67;;
68250;SDS011;55066;51.560;4.642;2024-02-21T11:26:07;8.90;;;3.15;;
68250;SDS011;55066;51.560;4.642;2024-02-21T11:28:34;8.23;;;3.13;;
68250;SDS011;55066;51.560;4.642;2024-02-21T11:31:06;6.82;;;3.20;;
68250;SDS011;55066;51.560;4.642;2024-02-21T11:33:39;8.30;;;3.35;;
68250;SDS011;55066;51.560;4.642;2024-02-21T11:36:22;9.95;;;3.80;;
68250;SDS011;55066;51.560;4.642;2024-02-21T11:38:52;7.03;;;3.38;;
68250;SDS011;55066;51.560;4.642;2024-02-21T11:41:21;11.05;;;3.80;;
68250;SDS011;55066;51.560;4.642;2024-02-21T11:43:47;9.33;;;3.90;;
68250;SDS011;55066;51.560;4.642;2024-02-21T11:46:14;7.28;;;3.45;;
68250;SDS011;55066;51.560;4.642;2024-02-21T11:48:40;10.30;;;3.83;;
68250;SDS011;55066;51.560;4.642;2024-02-21T11:51:06;7.50;;;3.50;;
68250;SDS011;55066;51.560;4.642;2024-02-21T11:53:32;11.23;;;3.40;;
68250;SDS011;55066;51.560;4.642;2024-02-21T11:55:58;11.15;;;3.47;;
68250;SDS011;55066;51.560;4.642;2024-02-21T11:58:24;8.43;;;3.10;;
68250;SDS011;55066;51.560;4.642;2024-02-21T12:00:50;8.38;;;3.50;;
68250;SDS011;55066;51.560;4.642;2024-02-21T12:03:16;7.03;;;3.17;;
68250;SDS011;55066;51.560;4.642;2024-02-21T12:05:42;8.98;;;3.65;;
68250;SDS011;55066;51.560;4.642;2024-02-21T12:08:07;11.37;;;3.67;;
68250;SDS011;55066;51.560;4.642;2024-02-21T12:10:34;12.37;;;3.93;;
68250;SDS011;55066;51.560;4.642;2024-02-21T12:13:10;8.95;;;3.83;;
68250;SDS011;55066;51.560;4.642;2024-02-21T12:15:38;12.23;;;4.15;;
68250;SDS011;55066;51.560;4.642;2024-02-21T12:18:04;8.50;;;3.60;;
68250;SDS011;55066;51.560;4.642;2024-02-21T12:20:30;10.77;;;4.03;;
68250;SDS011;55066;51.560;4.642;2024-02-21T12:22:57;10.77;;;4.22;;
68250;SDS011;55066;51.560;4.642;2024-02-21T12:25:25;8.75;;;3.47;;
68250;SDS011;55066;51.560;4.642;2024-02-21T12:27:54;9.98;;;3.58;;
68250;SDS011;55066;51.560;4.642;2024-02-21T12:30:21;10.27;;;4.03;;
68250;SDS011;55066;51.560;4.642;2024-02-21T12:32:47;10.82;;;3.85;;
68250;SDS011;55066;51.560;4.642;2024-02-21T12:35:14;13.95;;;4.60;;
68250;SDS011;55066;51.560;4.642;2024-02-21T12:37:39;10.37;;;4.17;;
68250;SDS011;55066;51.560;4.642;2024-02-21T12:40:05;10.15;;;4.05;;
68250;SDS011;55066;51.560;4.642;2024-02-21T12:42:32;10.13;;;4.60;;
68250;SDS011;55066;51.560;4.642;2024-02-21T12:44:58;14.02;;;4.13;;
68250;SDS011;55066;51.560;4.642;2024-02-21T12:47:24;9.45;;;3.72;;
68250;SDS011;55066;51.560;4.642;2024-02-21T12:49:52;12.82;;;4.75;;
68250;SDS011;55066;51.560;4.642;2024-02-21T12:52:17;13.75;;;4.80;;
68250;SDS011;55066;51.560;4.642;2024-02-21T12:54:43;13.57;;;4.85;;
68250;SDS011;55066;51.560;4.642;2024-02-21T12:57:09;11.40;;;4.20;;
68250;SDS011;55066;51.560;4.642;2024-02-21T12:59:34;12.37;;;4.90;;
68250;SDS011;55066;51.560;4.642;2024-02-21T13:02:00;11.52;;;4.05;;
68250;SDS011;55066;51.560;4.642;2024-02-21T13:04:25;13.38;;;4.55;;
68250;SDS011;55066;51.560;4.642;2024-02-21T13:06:51;10.53;;;3.87;;
68250;SDS011;55066;51.560;4.642;2024-02-21T13:09:16;10.87;;;4.20;;
68250;SDS011;55066;51.560;4.642;2024-02-21T13:11:42;6.90;;;3.65;;
68250;SDS011;55066;51.560;4.642;2024-02-21T13:14:09;8.57;;;3.77;;
68250;SDS011;55066;51.560;4.642;2024-02-21T13:16:35;10.27;;;3.42;;
68250;SDS011;55066;51.560;4.642;2024-02-21T13:19:04;10.03;;;3.73;;
68250;SDS011;55066;51.560;4.642;2024-02-21T13:21:33;7.32;;;3.08;;
68250;SDS011;55066;51.560;4.642;2024-02-21T13:23:59;6.22;;;2.88;;
68250;SDS011;55066;51.560;4.642;2024-02-21T13:26:25;7.57;;;3.20;;
68250;SDS011;55066;51.560;4.642;2024-02-21T13:28:52;11.23;;;2.97;;
68250;SDS011;55066;51.560;4.642;2024-02-21T13:31:20;7.50;;;2.83;;
68250;SDS011;55066;51.560;4.642;2024-02-21T13:33:45;12.57;;;3.33;;
68250;SDS011;55066;51.560;4.642;2024-02-21T13:36:11;7.43;;;2.87;;
68250;SDS011;55066;51.560;4.642;2024-02-21T13:38:36;10.37;;;2.97;;
68250;SDS011;55066;51.560;4.642;2024-02-21T13:41:04;6.72;;;3.00;;
68250;SDS011;55066;51.560;4.642;2024-02-21T13:43:31;6.75;;;3.17;;
68250;SDS011;55066;51.560;4.642;2024-02-21T13:45:59;8.37;;;3.20;;
68250;SDS011;55066;51.560;4.642;2024-02-21T13:48:28;8.30;;;2.80;;
68250;SDS011;55066;51.560;4.642;2024-02-21T13:50:54;8.95;;;2.42;;
68250;SDS011;55066;51.560;4.642;2024-02-21T13:53:20;8.07;;;2.93;;
68250;SDS011;55066;51.560;4.642;2024-02-21T13:55:46;7.43;;;2.75;;
68250;SDS011;55066;51.560;4.642;2024-02-21T13:58:12;7.28;;;2.85;;
68250;SDS011;55066;51.560;4.642;2024-02-21T14:00:38;10.45;;;3.40;;
68250;SDS011;55066;51.560;4.642;2024-02-21T14:03:03;8.90;;;2.80;;
68250;SDS011;55066;51.560;4.642;2024-02-21T14:05:30;7.90;;;2.97;;
68250;SDS011;55066;51.560;4.642;2024-02-21T14:07:56;7.90;;;3.20;;
68250;SDS011;55066;51.560;4.642;2024-02-21T14:10:21;11.63;;;3.20;;
68250;SDS011;55066;51.560;4.642;2024-02-21T14:12:47;10.15;;;3.05;;
68250;SDS011;55066;51.560;4.642;2024-02-21T14:15:16;7.00;;;3.33;;
68250;SDS011;55066;51.560;4.642;2024-02-21T14:17:41;7.03;;;3.40;;
68250;SDS011;55066;51.560;4.642;2024-02-21T14:20:09;8.55;;;3.22;;
68250;SDS011;55066;51.560;4.642;2024-02-21T14:22:34;7.55;;;3.10;;
68250;SDS011;55066;51.560;4.642;2024-02-21T14:25:03;10.57;;;3.70;;
68250;SDS011;55066;51.560;4.642;2024-02-21T14:27:30;9.90;;;3.67;;
68250;SDS011;55066;51.560;4.642;2024-02-21T14:29:56;8.90;;;3.70;;
68250;SDS011;55066;51.560;4.642;2024-02-21T14:32:22;11.00;;;3.78;;
68250;SDS011;55066;51.560;4.642;2024-02-21T14:34:47;11.33;;;3.97;;
68250;SDS011;55066;51.560;4.642;2024-02-21T14:37:14;8.80;;;3.60;;
68250;SDS011;55066;51.560;4.642;2024-02-21T14:39:39;10.73;;;4.30;;
68250;SDS011;55066;51.560;4.642;2024-02-21T14:42:05;10.88;;;4.63;;